sensor_id;sensor_type;location;lat;lon;timestamp;P1;durP1;ratioP1;P2;durP2;ratioP2
14326;SDS011;7247;53.330;-1.180;2023-10-31T00:00:49;11.30;;;7.60;;
14326;SDS011;7247;53.330;-1.180;2023-10-31T00:03:15;11.23;;;6.97;;
14326;SDS011;7247;53.330;-1.180;2023-10-31T00:05:42;9.70;;;7.27;;
14326;SDS011;7247;53.330;-1.180;2023-10-31T00:08:09;8.37;;;7.17;;
14326;SDS011;7247;53.330;-1.180;2023-10-31T00:10:36;10.43;;;6.97;;
14326;SDS011;7247;53.330;-1.180;2023-10-31T00:13:02;7.20;;;5.83;;
14326;SDS011;7247;53.330;-1.180;2023-10-31T00:15:29;9.47;;;6.03;;
14326;SDS011;7247;53.330;-1.180;2023-10-31T00:17:55;11.70;;;5.73;;
14326;SDS011;7247;53.330;-1.180;2023-10-31T00:20:22;7.20;;;5.17;;
14326;SDS011;7247;53.330;-1.180;2023-10-31T00:22:48;10.40;;;5.33;;
14326;SDS011;7247;53.330;-1.180;2023-10-31T00:25:16;12.97;;;5.60;;
14326;SDS011;7247;53.330;-1.180;2023-10-31T00:27:42;11.37;;;5.60;;
14326;SDS011;7247;53.330;-1.180;2023-10-31T00:30:09;7.77;;;5.57;;
14326;SDS011;7247;53.330;-1.180;2023-10-31T00:32:36;7.83;;;5.37;;
14326;SDS011;7247;53.330;-1.180;2023-10-31T00:35:02;9.07;;;6.00;;
14326;SDS011;7247;53.330;-1.180;2023-10-31T00:37:28;10.13;;;5.50;;
14326;SDS011;7247;53.330;-1.180;2023-10-31T00:39:55;8.53;;;5.37;;
14326;SDS011;7247;53.330;-1.180;2023-10-31T00:42:23;9.87;;;5.83;;
14326;SDS011;7247;53.330;-1.180;2023-10-31T00:44:49;10.20;;;6.17;;
14326;SDS011;7247;53.330;-1.180;2023-10-31T00:47:15;6.90;;;5.90;;
14326;SDS011;7247;53.330;-1.180;2023-10-31T00:49:42;7.07;;;6.07;;
14326;SDS011;7247;53.330;-1.180;2023-10-31T00:52:09;11.37;;;6.33;;
14326;SDS011;7247;53.330;-1.180;2023-10-31T00:54:35;10.57;;;6.10;;
14326;SDS011;7247;53.330;-1.180;2023-10-31T00:57:02;12.40;;;6.50;;
14326;SDS011;7247;53.330;-1.180;2023-10-31T00:59:30;10.60;;;6.03;;
14326;SDS011;7247;53.330;-1.180;2023-10-31T01:01:56;12.23;;;6.50;;
14326;SDS011;7247;53.330;-1.180;2023-10-31T01:04:23;10.13;;;6.27;;
14326;SDS011;7247;53.330;-1.180;2023-10-31T01:06:50;8.87;;;5.87;;
14326;SDS011;7247;53.330;-1.180;2023-10-31T01:09:17;13.20;;;5.93;;
14326;SDS011;7247;53.330;-1.180;2023-10-31T01:11:43;10.63;;;5.83;;
14326;SDS011;7247;53.330;-1.180;2023-10-31T01:14:10;9.03;;;5.17;;
14326;SDS011;7247;53.330;-1.180;2023-10-31T01:16:37;11.00;;;5.27;;
14326;SDS011;7247;53.330;-1.180;2023-10-31T01:19:05;7.50;;;5.33;;
14326;SDS011;7247;53.330;-1.180;2023-10-31T01:21:32;6.07;;;5.43;;
14326;SDS011;7247;53.330;-1.180;2023-10-31T01:23:58;6.77;;;5.17;;
14326;SDS011;7247;53.330;-1.180;2023-10-31T01:26:25;9.73;;;5.30;;
14326;SDS011;7247;53.330;-1.180;2023-10-31T01:28:51;9.67;;;4.97;;
14326;SDS011;7247;53.330;-1.180;2023-10-31T01:31:18;9.23;;;5.70;;
14326;SDS011;7247;53.330;-1.180;2023-10-31T01:33:46;9.33;;;5.10;;
14326;SDS011;7247;53.330;-1.180;2023-10-31T01:36:12;8.90;;;5.87;;
14326;SDS011;7247;53.330;-1.180;2023-10-31T01:38:39;7.13;;;5.80;;
14326;SDS011;7247;53.330;-1.180;2023-10-31T01:41:06;12.03;;;6.07;;
14326;SDS011;7247;53.330;-1.180;2023-10-31T01:43:32;13.27;;;6.10;;
14326;SDS011;7247;53.330;-1.180;2023-10-31T01:45:59;7.77;;;5.23;;
14326;SDS011;7247;53.330;-1.180;2023-10-31T01:48:27;8.30;;;4.90;;
14326;SDS011;7247;53.330;-1.180;2023-10-31T01:50:55;7.20;;;4.67;;
14326;SDS011;7247;53.330;-1.180;2023-10-31T01:53:22;10.70;;;4.73;;
14326;SDS011;7247;53.330;-1.180;2023-10-31T01:55:49;7.83;;;4.57;;
14326;SDS011;7247;53.330;-1.180;2023-10-31T01:58:15;7.93;;;4.47;;
14326;SDS011;7247;53.330;-1.180;2023-10-31T02:00:42;7.57;;;4.90;;
14326;SDS011;7247;53.330;-1.180;2023-10-31T02:03:09;9.37;;;5.10;;
14326;SDS011;7247;53.330;-1.180;2023-10-31T02:05:35;6.13;;;4.63;;
14326;SDS011;7247;53.330;-1.180;2023-10-31T02:08:04;6.97;;;5.10;;
14326;SDS011;7247;53.330;-1.180;2023-10-31T02:10:33;4.90;;;4.40;;
14326;SDS011;7247;53.330;-1.180;2023-10-31T02:13:09;8.43;;;4.57;;
14326;SDS011;7247;53.330;-1.180;2023-10-31T02:15:36;5.27;;;4.03;;
14326;SDS011;7247;53.330;-1.180;2023-10-31T02:18:02;6.47;;;4.10;;
14326;SDS011;7247;53.330;-1.180;2023-10-31T02:20:29;4.27;;;3.80;;
14326;SDS011;7247;53.330;-1.180;2023-10-31T02:22:56;6.50;;;3.53;;
14326;SDS011;7247;53.330;-1.180;2023-10-31T02:25:23;6.83;;;4.00;;
14326;SDS011;7247;53.330;-1.180;2023-10-31T02:27:49;5.00;;;3.53;;
14326;SDS011;7247;53.330;-1.180;2023-10-31T02:30:16;4.73;;;3.50;;
14326;SDS011;7247;53.330;-1.180;2023-10-31T02:32:42;6.97;;;3.20;;
14326;SDS011;7247;53.330;-1.180;2023-10-31T02:35:09;5.73;;;3.30;;
14326;SDS011;7247;53.330;-1.180;2023-10-31T02:37:35;6.77;;;3.50;;
14326;SDS011;7247;53.330;-1.180;2023-10-31T02:40:03;8.97;;;3.17;;
14326;SDS011;7247;53.330;-1.180;2023-10-31T02:42:30;7.60;;;3.50;;
14326;SDS011;7247;53.330;-1.180;2023-10-31T02:44:56;9.07;;;3.60;;
14326;SDS011;7247;53.330;-1.180;2023-10-31T02:47:23;4.97;;;3.20;;
14326;SDS011;7247;53.330;-1.180;2023-10-31T02:49:49;8.70;;;3.30;;
14326;SDS011;7247;53.330;-1.180;2023-10-31T02:52:15;5.43;;;3.40;;
14326;SDS011;7247;53.330;-1.180;2023-10-31T02:54:42;5.10;;;3.40;;
14326;SDS011;7247;53.330;-1.180;2023-10-31T02:57:09;4.40;;;3.07;;
14326;SDS011;7247;53.330;-1.180;2023-10-31T02:59:36;8.40;;;3.40;;
14326;SDS011;7247;53.330;-1.180;2023-10-31T03:02:02;5.00;;;3.30;;
14326;SDS011;7247;53.330;-1.180;2023-10-31T03:04:29;7.07;;;3.83;;
14326;SDS011;7247;53.330;-1.180;2023-10-31T03:06:55;5.83;;;3.13;;
14326;SDS011;7247;53.330;-1.180;2023-10-31T03:09:22;6.10;;;3.40;;
14326;SDS011;7247;53.330;-1.180;2023-10-31T03:11:48;9.03;;;3.80;;
14326;SDS011;7247;53.330;-1.180;2023-10-31T03:14:16;6.67;;;4.27;;
14326;SDS011;7247;53.330;-1.180;2023-10-31T03:16:42;6.53;;;4.00;;
14326;SDS011;7247;53.330;-1.180;2023-10-31T03:19:08;10.03;;;4.93;;
14326;SDS011;7247;53.330;-1.180;2023-10-31T03:21:35;10.23;;;4.50;;
14326;SDS011;7247;53.330;-1.180;2023-10-31T03:24:01;9.83;;;4.83;;
14326;SDS011;7247;53.330;-1.180;2023-10-31T03:26:28;6.17;;;4.17;;
14326;SDS011;7247;53.330;-1.180;2023-10-31T03:28:54;11.00;;;5.50;;
14326;SDS011;7247;53.330;-1.180;2023-10-31T03:31:23;8.37;;;4.73;;
14326;SDS011;7247;53.330;-1.180;2023-10-31T03:33:50;10.50;;;5.20;;
14326;SDS011;7247;53.330;-1.180;2023-10-31T03:36:16;6.37;;;4.37;;
14326;SDS011;7247;53.330;-1.180;2023-10-31T03:38:43;8.00;;;4.33;;
14326;SDS011;7247;53.330;-1.180;2023-10-31T03:41:10;8.00;;;4.60;;
14326;SDS011;7247;53.330;-1.180;2023-10-31T03:43:38;7.57;;;4.80;;
14326;SDS011;7247;53.330;-1.180;2023-10-31T03:46:04;8.40;;;4.53;;
14326;SDS011;7247;53.330;-1.180;2023-10-31T03:48:32;7.50;;;4.23;;
14326;SDS011;7247;53.330;-1.180;2023-10-31T03:50:59;12.07;;;5.57;;
14326;SDS011;7247;53.330;-1.180;2023-10-31T03:53:25;11.83;;;5.00;;
14326;SDS011;7247;53.330;-1.180;2023-10-31T03:55:51;9.23;;;5.90;;
14326;SDS011;7247;53.330;-1.180;2023-10-31T03:58:18;9.80;;;5.10;;
14326;SDS011;7247;53.330;-1.180;2023-10-31T04:00:44;11.13;;;5.77;;
14326;SDS011;7247;53.330;-1.180;2023-10-31T04:03:11;10.70;;;5.80;;
14326;SDS011;7247;53.330;-1.180;2023-10-31T04:05:38;6.30;;;5.47;;
14326;SDS011;7247;53.330;-1.180;2023-10-31T04:08:05;11.57;;;6.00;;
14326;SDS011;7247;53.330;-1.180;2023-10-31T04:10:31;10.50;;;6.30;;
14326;SDS011;7247;53.330;-1.180;2023-10-31T04:12:57;11.43;;;6.70;;
14326;SDS011;7247;53.330;-1.180;2023-10-31T04:15:24;8.87;;;6.70;;
14326;SDS011;7247;53.330;-1.180;2023-10-31T04:17:50;12.43;;;7.13;;
14326;SDS011;7247;53.330;-1.180;2023-10-31T04:20:17;10.70;;;6.90;;
14326;SDS011;7247;53.330;-1.180;2023-10-31T04:22:44;14.43;;;6.80;;
14326;SDS011;7247;53.330;-1.180;2023-10-31T04:25:11;11.83;;;7.17;;
14326;SDS011;7247;53.330;-1.180;2023-10-31T04:27:37;12.97;;;7.90;;
14326;SDS011;7247;53.330;-1.180;2023-10-31T04:30:04;14.47;;;7.77;;
14326;SDS011;7247;53.330;-1.180;2023-10-31T04:32:30;13.00;;;7.03;;
14326;SDS011;7247;53.330;-1.180;2023-10-31T04:34:57;10.23;;;6.43;;
14326;SDS011;7247;53.330;-1.180;2023-10-31T04:37:23;8.50;;;6.83;;
14326;SDS011;7247;53.330;-1.180;2023-10-31T04:39:51;11.13;;;7.37;;
14326;SDS011;7247;53.330;-1.180;2023-10-31T04:42:18;12.63;;;6.63;;
14326;SDS011;7247;53.330;-1.180;2023-10-31T04:44:45;11.80;;;7.00;;
14326;SDS011;7247;53.330;-1.180;2023-10-31T04:47:11;11.67;;;7.57;;
14326;SDS011;7247;53.330;-1.180;2023-10-31T04:49:38;12.43;;;7.40;;
14326;SDS011;7247;53.330;-1.180;2023-10-31T04:52:04;13.80;;;6.83;;
14326;SDS011;7247;53.330;-1.180;2023-10-31T04:54:31;12.90;;;7.70;;
14326;SDS011;7247;53.330;-1.180;2023-10-31T04:56:59;14.43;;;7.63;;
14326;SDS011;7247;53.330;-1.180;2023-10-31T04:59:25;14.57;;;8.07;;
14326;SDS011;7247;53.330;-1.180;2023-10-31T05:01:51;15.37;;;8.67;;
14326;SDS011;7247;53.330;-1.180;2023-10-31T05:04:19;17.57;;;8.07;;
14326;SDS011;7247;53.330;-1.180;2023-10-31T05:06:45;11.90;;;8.27;;
14326;SDS011;7247;53.330;-1.180;2023-10-31T05:09:12;15.90;;;8.40;;
14326;SDS011;7247;53.330;-1.180;2023-10-31T05:11:39;15.03;;;8.80;;
14326;SDS011;7247;53.330;-1.180;2023-10-31T05:14:08;14.27;;;8.53;;
14326;SDS011;7247;53.330;-1.180;2023-10-31T05:16:38;14.07;;;8.53;;
14326;SDS011;7247;53.330;-1.180;2023-10-31T05:19:05;17.87;;;9.03;;
14326;SDS011;7247;53.330;-1.180;2023-10-31T05:21:31;16.53;;;8.40;;
14326;SDS011;7247;53.330;-1.180;2023-10-31T05:23:57;15.67;;;8.60;;
14326;SDS011;7247;53.330;-1.180;2023-10-31T05:26:24;13.60;;;9.03;;
14326;SDS011;7247;53.330;-1.180;2023-10-31T05:28:52;19.50;;;9.27;;
14326;SDS011;7247;53.330;-1.180;2023-10-31T05:31:20;16.50;;;8.97;;
14326;SDS011;7247;53.330;-1.180;2023-10-31T05:33:47;19.13;;;9.33;;
14326;SDS011;7247;53.330;-1.180;2023-10-31T05:36:17;15.43;;;8.93;;
14326;SDS011;7247;53.330;-1.180;2023-10-31T05:38:44;22.20;;;9.80;;
14326;SDS011;7247;53.330;-1.180;2023-10-31T05:41:10;19.80;;;9.50;;
14326;SDS011;7247;53.330;-1.180;2023-10-31T05:43:36;15.80;;;9.83;;
14326;SDS011;7247;53.330;-1.180;2023-10-31T05:46:03;21.67;;;10.83;;
14326;SDS011;7247;53.330;-1.180;2023-10-31T05:48:31;19.33;;;10.83;;
14326;SDS011;7247;53.330;-1.180;2023-10-31T05:50:58;16.60;;;9.97;;
14326;SDS011;7247;53.330;-1.180;2023-10-31T05:53:24;19.80;;;10.93;;
14326;SDS011;7247;53.330;-1.180;2023-10-31T05:55:50;17.57;;;11.00;;
14326;SDS011;7247;53.330;-1.180;2023-10-31T05:58:17;23.80;;;12.43;;
14326;SDS011;7247;53.330;-1.180;2023-10-31T06:00:43;18.73;;;11.57;;
14326;SDS011;7247;53.330;-1.180;2023-10-31T06:03:09;20.90;;;11.60;;
14326;SDS011;7247;53.330;-1.180;2023-10-31T06:05:36;23.07;;;12.80;;
14326;SDS011;7247;53.330;-1.180;2023-10-31T06:08:03;22.20;;;13.17;;
14326;SDS011;7247;53.330;-1.180;2023-10-31T06:10:29;21.10;;;11.80;;
14326;SDS011;7247;53.330;-1.180;2023-10-31T06:12:56;20.67;;;11.60;;
14326;SDS011;7247;53.330;-1.180;2023-10-31T06:15:22;21.47;;;12.33;;
14326;SDS011;7247;53.330;-1.180;2023-10-31T06:17:48;18.40;;;12.20;;
14326;SDS011;7247;53.330;-1.180;2023-10-31T06:20:15;20.23;;;11.60;;
14326;SDS011;7247;53.330;-1.180;2023-10-31T06:22:43;16.67;;;11.53;;
14326;SDS011;7247;53.330;-1.180;2023-10-31T06:25:09;21.07;;;12.10;;
14326;SDS011;7247;53.330;-1.180;2023-10-31T06:27:35;19.70;;;11.13;;
14326;SDS011;7247;53.330;-1.180;2023-10-31T06:30:02;16.13;;;11.00;;
14326;SDS011;7247;53.330;-1.180;2023-10-31T06:32:28;15.90;;;10.97;;
14326;SDS011;7247;53.330;-1.180;2023-10-31T06:34:55;15.43;;;10.30;;
14326;SDS011;7247;53.330;-1.180;2023-10-31T06:37:21;16.93;;;11.00;;
14326;SDS011;7247;53.330;-1.180;2023-10-31T06:39:49;14.07;;;10.67;;
14326;SDS011;7247;53.330;-1.180;2023-10-31T06:42:15;17.80;;;10.97;;
14326;SDS011;7247;53.330;-1.180;2023-10-31T06:44:42;17.83;;;10.53;;
14326;SDS011;7247;53.330;-1.180;2023-10-31T06:47:08;14.60;;;9.87;;
14326;SDS011;7247;53.330;-1.180;2023-10-31T06:49:35;16.77;;;10.13;;
14326;SDS011;7247;53.330;-1.180;2023-10-31T06:52:02;14.77;;;10.23;;
14326;SDS011;7247;53.330;-1.180;2023-10-31T06:54:28;17.37;;;10.57;;
14326;SDS011;7247;53.330;-1.180;2023-10-31T06:56:58;13.90;;;9.87;;
14326;SDS011;7247;53.330;-1.180;2023-10-31T06:59:26;14.23;;;10.17;;
14326;SDS011;7247;53.330;-1.180;2023-10-31T07:01:54;11.57;;;9.10;;
14326;SDS011;7247;53.330;-1.180;2023-10-31T07:04:20;10.53;;;8.90;;
14326;SDS011;7247;53.330;-1.180;2023-10-31T07:06:47;11.73;;;7.80;;
14326;SDS011;7247;53.330;-1.180;2023-10-31T07:09:13;9.70;;;6.77;;
14326;SDS011;7247;53.330;-1.180;2023-10-31T07:11:40;8.80;;;6.90;;
14326;SDS011;7247;53.330;-1.180;2023-10-31T07:14:07;11.83;;;6.93;;
14326;SDS011;7247;53.330;-1.180;2023-10-31T07:16:34;7.93;;;6.50;;
14326;SDS011;7247;53.330;-1.180;2023-10-31T07:19:00;9.37;;;6.60;;
14326;SDS011;7247;53.330;-1.180;2023-10-31T07:21:26;9.00;;;7.20;;
14326;SDS011;7247;53.330;-1.180;2023-10-31T07:23:53;9.97;;;6.83;;
14326;SDS011;7247;53.330;-1.180;2023-10-31T07:26:20;10.73;;;7.20;;
14326;SDS011;7247;53.330;-1.180;2023-10-31T07:28:47;10.67;;;7.27;;
14326;SDS011;7247;53.330;-1.180;2023-10-31T07:31:15;8.87;;;6.97;;
14326;SDS011;7247;53.330;-1.180;2023-10-31T07:33:43;9.63;;;6.70;;
14326;SDS011;7247;53.330;-1.180;2023-10-31T07:36:09;10.17;;;7.10;;
14326;SDS011;7247;53.330;-1.180;2023-10-31T07:38:36;12.53;;;7.93;;
14326;SDS011;7247;53.330;-1.180;2023-10-31T07:41:02;9.87;;;7.37;;
14326;SDS011;7247;53.330;-1.180;2023-10-31T07:43:29;10.43;;;7.03;;
14326;SDS011;7247;53.330;-1.180;2023-10-31T07:45:55;9.57;;;7.20;;
14326;SDS011;7247;53.330;-1.180;2023-10-31T07:48:23;10.60;;;7.40;;
14326;SDS011;7247;53.330;-1.180;2023-10-31T07:50:49;11.30;;;8.03;;
14326;SDS011;7247;53.330;-1.180;2023-10-31T07:53:16;13.27;;;9.10;;
14326;SDS011;7247;53.330;-1.180;2023-10-31T07:55:42;11.90;;;8.80;;
14326;SDS011;7247;53.330;-1.180;2023-10-31T07:58:08;12.80;;;9.00;;
14326;SDS011;7247;53.330;-1.180;2023-10-31T08:00:35;12.87;;;8.57;;
14326;SDS011;7247;53.330;-1.180;2023-10-31T08:03:04;14.53;;;9.27;;
14326;SDS011;7247;53.330;-1.180;2023-10-31T08:05:31;14.63;;;9.03;;
14326;SDS011;7247;53.330;-1.180;2023-10-31T08:07:58;14.97;;;9.80;;
14326;SDS011;7247;53.330;-1.180;2023-10-31T08:10:24;12.70;;;8.77;;
14326;SDS011;7247;53.330;-1.180;2023-10-31T08:12:51;13.80;;;10.10;;
14326;SDS011;7247;53.330;-1.180;2023-10-31T08:15:17;13.03;;;8.80;;
14326;SDS011;7247;53.330;-1.180;2023-10-31T08:17:43;16.87;;;8.83;;
14326;SDS011;7247;53.330;-1.180;2023-10-31T08:20:10;13.60;;;9.50;;
14326;SDS011;7247;53.330;-1.180;2023-10-31T08:22:39;12.77;;;9.73;;
14326;SDS011;7247;53.330;-1.180;2023-10-31T08:25:07;13.37;;;9.30;;
14326;SDS011;7247;53.330;-1.180;2023-10-31T08:27:34;12.17;;;8.77;;
14326;SDS011;7247;53.330;-1.180;2023-10-31T08:30:00;11.40;;;9.07;;
14326;SDS011;7247;53.330;-1.180;2023-10-31T08:32:27;13.03;;;9.27;;
14326;SDS011;7247;53.330;-1.180;2023-10-31T08:34:54;11.23;;;8.97;;
14326;SDS011;7247;53.330;-1.180;2023-10-31T08:37:21;14.20;;;9.37;;
14326;SDS011;7247;53.330;-1.180;2023-10-31T08:39:49;10.80;;;9.00;;
14326;SDS011;7247;53.330;-1.180;2023-10-31T08:42:15;10.47;;;8.37;;
14326;SDS011;7247;53.330;-1.180;2023-10-31T08:44:41;11.20;;;8.33;;
14326;SDS011;7247;53.330;-1.180;2023-10-31T08:47:07;8.90;;;7.43;;
14326;SDS011;7247;53.330;-1.180;2023-10-31T08:49:33;11.43;;;7.57;;
14326;SDS011;7247;53.330;-1.180;2023-10-31T08:52:00;11.90;;;7.30;;
14326;SDS011;7247;53.330;-1.180;2023-10-31T08:54:27;9.53;;;7.17;;
14326;SDS011;7247;53.330;-1.180;2023-10-31T08:56:55;10.80;;;7.37;;
14326;SDS011;7247;53.330;-1.180;2023-10-31T08:59:21;8.27;;;6.90;;
14326;SDS011;7247;53.330;-1.180;2023-10-31T09:01:47;7.53;;;6.53;;
14326;SDS011;7247;53.330;-1.180;2023-10-31T09:04:14;8.23;;;6.63;;
14326;SDS011;7247;53.330;-1.180;2023-10-31T09:06:40;11.07;;;7.07;;
14326;SDS011;7247;53.330;-1.180;2023-10-31T09:09:07;9.13;;;6.40;;
14326;SDS011;7247;53.330;-1.180;2023-10-31T09:11:35;7.90;;;6.60;;
14326;SDS011;7247;53.330;-1.180;2023-10-31T09:14:03;12.57;;;6.67;;
14326;SDS011;7247;53.330;-1.180;2023-10-31T09:16:29;12.33;;;8.43;;
14326;SDS011;7247;53.330;-1.180;2023-10-31T09:18:56;7.93;;;6.97;;
14326;SDS011;7247;53.330;-1.180;2023-10-31T09:21:22;11.70;;;7.47;;
14326;SDS011;7247;53.330;-1.180;2023-10-31T09:23:48;11.40;;;7.90;;
14326;SDS011;7247;53.330;-1.180;2023-10-31T09:26:15;12.00;;;9.50;;
14326;SDS011;7247;53.330;-1.180;2023-10-31T09:28:42;10.07;;;8.50;;
14326;SDS011;7247;53.330;-1.180;2023-10-31T09:31:16;10.07;;;8.43;;
14326;SDS011;7247;53.330;-1.180;2023-10-31T09:33:42;9.43;;;7.93;;
14326;SDS011;7247;53.330;-1.180;2023-10-31T09:36:08;10.47;;;8.63;;
14326;SDS011;7247;53.330;-1.180;2023-10-31T09:38:35;11.73;;;8.17;;
14326;SDS011;7247;53.330;-1.180;2023-10-31T09:41:02;13.13;;;8.93;;
14326;SDS011;7247;53.330;-1.180;2023-10-31T09:43:28;15.00;;;8.93;;
14326;SDS011;7247;53.330;-1.180;2023-10-31T09:45:54;12.27;;;9.20;;
14326;SDS011;7247;53.330;-1.180;2023-10-31T09:48:23;12.63;;;8.60;;
14326;SDS011;7247;53.330;-1.180;2023-10-31T09:50:49;16.97;;;8.67;;
14326;SDS011;7247;53.330;-1.180;2023-10-31T09:53:17;11.77;;;8.77;;
14326;SDS011;7247;53.330;-1.180;2023-10-31T09:55:44;12.50;;;8.77;;
14326;SDS011;7247;53.330;-1.180;2023-10-31T09:58:11;10.47;;;8.47;;
14326;SDS011;7247;53.330;-1.180;2023-10-31T10:00:37;11.57;;;8.40;;
14326;SDS011;7247;53.330;-1.180;2023-10-31T10:03:06;10.87;;;7.80;;
14326;SDS011;7247;53.330;-1.180;2023-10-31T10:05:34;10.43;;;8.50;;
14326;SDS011;7247;53.330;-1.180;2023-10-31T10:08:01;10.33;;;8.10;;
14326;SDS011;7247;53.330;-1.180;2023-10-31T10:10:27;10.73;;;8.30;;
14326;SDS011;7247;53.330;-1.180;2023-10-31T10:12:56;9.23;;;8.23;;
14326;SDS011;7247;53.330;-1.180;2023-10-31T10:15:23;10.17;;;8.90;;
14326;SDS011;7247;53.330;-1.180;2023-10-31T10:17:50;9.63;;;8.50;;
14326;SDS011;7247;53.330;-1.180;2023-10-31T10:20:16;11.40;;;8.53;;
14326;SDS011;7247;53.330;-1.180;2023-10-31T10:22:45;12.03;;;8.70;;
14326;SDS011;7247;53.330;-1.180;2023-10-31T10:25:12;12.10;;;10.30;;
14326;SDS011;7247;53.330;-1.180;2023-10-31T10:27:40;11.87;;;10.13;;
14326;SDS011;7247;53.330;-1.180;2023-10-31T10:30:07;11.67;;;9.70;;
14326;SDS011;7247;53.330;-1.180;2023-10-31T10:32:34;11.77;;;9.90;;
14326;SDS011;7247;53.330;-1.180;2023-10-31T10:35:00;10.70;;;9.53;;
14326;SDS011;7247;53.330;-1.180;2023-10-31T10:37:27;13.77;;;9.67;;
14326;SDS011;7247;53.330;-1.180;2023-10-31T10:39:57;10.53;;;8.73;;
14326;SDS011;7247;53.330;-1.180;2023-10-31T10:42:27;10.27;;;8.30;;
14326;SDS011;7247;53.330;-1.180;2023-10-31T10:44:56;9.73;;;7.13;;
14326;SDS011;7247;53.330;-1.180;2023-10-31T10:47:24;7.37;;;6.50;;
14326;SDS011;7247;53.330;-1.180;2023-10-31T10:49:50;11.03;;;7.17;;
14326;SDS011;7247;53.330;-1.180;2023-10-31T10:52:22;14.90;;;8.10;;
14326;SDS011;7247;53.330;-1.180;2023-10-31T10:54:51;9.50;;;7.70;;
14326;SDS011;7247;53.330;-1.180;2023-10-31T10:57:29;11.20;;;8.90;;
14326;SDS011;7247;53.330;-1.180;2023-10-31T10:59:58;10.50;;;7.30;;
14326;SDS011;7247;53.330;-1.180;2023-10-31T11:02:28;12.13;;;8.37;;
14326;SDS011;7247;53.330;-1.180;2023-10-31T11:04:55;12.40;;;8.90;;
14326;SDS011;7247;53.330;-1.180;2023-10-31T11:07:24;14.07;;;8.97;;
14326;SDS011;7247;53.330;-1.180;2023-10-31T11:09:52;10.83;;;8.23;;
14326;SDS011;7247;53.330;-1.180;2023-10-31T11:12:19;11.77;;;8.30;;
14326;SDS011;7247;53.330;-1.180;2023-10-31T11:14:47;10.40;;;8.67;;
14326;SDS011;7247;53.330;-1.180;2023-10-31T11:17:15;11.20;;;9.27;;
14326;SDS011;7247;53.330;-1.180;2023-10-31T11:19:44;11.93;;;9.83;;
14326;SDS011;7247;53.330;-1.180;2023-10-31T11:22:11;14.03;;;10.67;;
14326;SDS011;7247;53.330;-1.180;2023-10-31T11:24:37;13.63;;;10.93;;
14326;SDS011;7247;53.330;-1.180;2023-10-31T11:27:05;13.63;;;10.77;;
14326;SDS011;7247;53.330;-1.180;2023-10-31T11:29:31;14.63;;;11.47;;
14326;SDS011;7247;53.330;-1.180;2023-10-31T11:31:59;18.10;;;11.37;;
14326;SDS011;7247;53.330;-1.180;2023-10-31T11:34:26;16.63;;;11.33;;
14326;SDS011;7247;53.330;-1.180;2023-10-31T11:36:52;33.60;;;12.70;;
14326;SDS011;7247;53.330;-1.180;2023-10-31T11:39:20;20.33;;;12.10;;
14326;SDS011;7247;53.330;-1.180;2023-10-31T11:41:50;16.97;;;11.43;;
14326;SDS011;7247;53.330;-1.180;2023-10-31T11:44:21;17.60;;;12.87;;
14326;SDS011;7247;53.330;-1.180;2023-10-31T11:46:49;19.23;;;11.77;;
14326;SDS011;7247;53.330;-1.180;2023-10-31T11:49:18;15.87;;;11.67;;
14326;SDS011;7247;53.330;-1.180;2023-10-31T11:52:13;14.73;;;11.33;;
14326;SDS011;7247;53.330;-1.180;2023-10-31T11:54:40;15.53;;;11.87;;
14326;SDS011;7247;53.330;-1.180;2023-10-31T11:57:06;15.33;;;12.53;;
14326;SDS011;7247;53.330;-1.180;2023-10-31T11:59:35;14.00;;;11.93;;
14326;SDS011;7247;53.330;-1.180;2023-10-31T12:02:05;13.67;;;11.03;;
14326;SDS011;7247;53.330;-1.180;2023-10-31T12:04:40;16.83;;;10.83;;
14326;SDS011;7247;53.330;-1.180;2023-10-31T12:07:06;15.37;;;12.10;;
14326;SDS011;7247;53.330;-1.180;2023-10-31T12:09:33;16.93;;;12.43;;
14326;SDS011;7247;53.330;-1.180;2023-10-31T12:11:59;18.00;;;11.83;;
14326;SDS011;7247;53.330;-1.180;2023-10-31T12:14:26;17.63;;;12.37;;
14326;SDS011;7247;53.330;-1.180;2023-10-31T12:16:52;14.00;;;12.33;;
14326;SDS011;7247;53.330;-1.180;2023-10-31T12:19:20;17.03;;;12.60;;
14326;SDS011;7247;53.330;-1.180;2023-10-31T12:21:48;19.37;;;11.90;;
14326;SDS011;7247;53.330;-1.180;2023-10-31T12:24:15;16.20;;;12.90;;
14326;SDS011;7247;53.330;-1.180;2023-10-31T12:26:42;18.37;;;11.77;;
14326;SDS011;7247;53.330;-1.180;2023-10-31T12:29:10;16.03;;;12.03;;
14326;SDS011;7247;53.330;-1.180;2023-10-31T12:31:41;16.90;;;12.67;;
14326;SDS011;7247;53.330;-1.180;2023-10-31T12:34:08;15.53;;;12.30;;
14326;SDS011;7247;53.330;-1.180;2023-10-31T12:36:35;16.43;;;11.27;;
14326;SDS011;7247;53.330;-1.180;2023-10-31T12:39:03;15.87;;;11.40;;
14326;SDS011;7247;53.330;-1.180;2023-10-31T12:41:31;14.60;;;12.00;;
14326;SDS011;7247;53.330;-1.180;2023-10-31T12:43:58;23.50;;;12.17;;
14326;SDS011;7247;53.330;-1.180;2023-10-31T12:46:27;15.93;;;12.00;;
14326;SDS011;7247;53.330;-1.180;2023-10-31T12:48:54;16.73;;;11.53;;
14326;SDS011;7247;53.330;-1.180;2023-10-31T12:51:20;16.17;;;11.80;;
14326;SDS011;7247;53.330;-1.180;2023-10-31T12:53:48;15.93;;;11.40;;
14326;SDS011;7247;53.330;-1.180;2023-10-31T12:58:58;16.63;;;11.97;;
14326;SDS011;7247;53.330;-1.180;2023-10-31T13:01:24;18.73;;;11.50;;
14326;SDS011;7247;53.330;-1.180;2023-10-31T13:03:51;13.17;;;10.77;;
14326;SDS011;7247;53.330;-1.180;2023-10-31T13:06:18;15.37;;;10.67;;
14326;SDS011;7247;53.330;-1.180;2023-10-31T13:08:45;13.83;;;10.60;;
14326;SDS011;7247;53.330;-1.180;2023-10-31T13:11:11;16.30;;;10.83;;
14326;SDS011;7247;53.330;-1.180;2023-10-31T13:13:39;14.37;;;10.77;;
14326;SDS011;7247;53.330;-1.180;2023-10-31T13:16:07;14.57;;;10.67;;
14326;SDS011;7247;53.330;-1.180;2023-10-31T13:18:35;16.63;;;11.53;;
14326;SDS011;7247;53.330;-1.180;2023-10-31T13:21:01;14.87;;;11.73;;
14326;SDS011;7247;53.330;-1.180;2023-10-31T13:23:27;14.67;;;11.47;;
14326;SDS011;7247;53.330;-1.180;2023-10-31T13:25:54;15.10;;;11.77;;
14326;SDS011;7247;53.330;-1.180;2023-10-31T13:28:20;14.73;;;11.50;;
14326;SDS011;7247;53.330;-1.180;2023-10-31T13:30:47;15.90;;;11.40;;
14326;SDS011;7247;53.330;-1.180;2023-10-31T13:33:14;17.03;;;11.50;;
14326;SDS011;7247;53.330;-1.180;2023-10-31T13:35:41;14.30;;;10.97;;
14326;SDS011;7247;53.330;-1.180;2023-10-31T13:38:07;16.90;;;11.80;;
14326;SDS011;7247;53.330;-1.180;2023-10-31T13:40:34;18.10;;;12.17;;
14326;SDS011;7247;53.330;-1.180;2023-10-31T13:43:00;13.07;;;11.73;;
14326;SDS011;7247;53.330;-1.180;2023-10-31T13:45:27;14.03;;;12.07;;
14326;SDS011;7247;53.330;-1.180;2023-10-31T13:47:53;15.27;;;12.80;;
14326;SDS011;7247;53.330;-1.180;2023-10-31T13:50:21;15.33;;;12.30;;
14326;SDS011;7247;53.330;-1.180;2023-10-31T13:52:48;20.97;;;13.73;;
14326;SDS011;7247;53.330;-1.180;2023-10-31T13:55:14;19.73;;;14.17;;
14326;SDS011;7247;53.330;-1.180;2023-10-31T13:57:41;17.20;;;13.30;;
14326;SDS011;7247;53.330;-1.180;2023-10-31T14:00:08;16.83;;;13.90;;
14326;SDS011;7247;53.330;-1.180;2023-10-31T14:02:35;22.07;;;14.30;;
14326;SDS011;7247;53.330;-1.180;2023-10-31T14:05:02;22.60;;;14.77;;
14326;SDS011;7247;53.330;-1.180;2023-10-31T14:07:30;19.07;;;14.50;;
14326;SDS011;7247;53.330;-1.180;2023-10-31T14:09:57;18.77;;;14.47;;
14326;SDS011;7247;53.330;-1.180;2023-10-31T14:12:24;20.00;;;13.87;;
14326;SDS011;7247;53.330;-1.180;2023-10-31T14:14:50;20.03;;;14.47;;
14326;SDS011;7247;53.330;-1.180;2023-10-31T14:17:17;18.57;;;14.33;;
14326;SDS011;7247;53.330;-1.180;2023-10-31T14:19:43;17.67;;;13.33;;
14326;SDS011;7247;53.330;-1.180;2023-10-31T14:22:11;19.40;;;13.07;;
14326;SDS011;7247;53.330;-1.180;2023-10-31T14:24:39;18.37;;;13.73;;
14326;SDS011;7247;53.330;-1.180;2023-10-31T14:27:06;15.47;;;12.43;;
14326;SDS011;7247;53.330;-1.180;2023-10-31T14:29:32;20.63;;;12.83;;
14326;SDS011;7247;53.330;-1.180;2023-10-31T14:32:04;18.63;;;13.57;;
14326;SDS011;7247;53.330;-1.180;2023-10-31T14:34:31;19.33;;;13.47;;